createdAt,value
2019-03-21T00:02:18.900Z,98490.26
2019-03-21T00:04:51.421Z,98495.73
2019-03-21T00:07:21.047Z,98490.75
2019-03-21T00:10:13.457Z,98489.24
2019-03-21T00:12:43.078Z,98491.09
2019-03-21T00:15:23.338Z,98493.06
2019-03-21T00:17:57.697Z,98497.70
2019-03-21T00:20:27.312Z,98494.05
2019-03-21T00:22:56.933Z,98489.40
2019-03-21T00:25:26.581Z,98497.00
2019-03-21T00:27:56.202Z,98489.85
2019-03-21T00:30:26.750Z,98497.98
2019-03-21T00:32:56.370Z,98501.45
2019-03-21T00:35:25.975Z,98502.23
2019-03-21T00:37:55.597Z,98500.63
2019-03-21T00:40:30.472Z,98501.26
2019-03-21T00:43:01.870Z,98502.77
2019-03-21T00:45:31.483Z,98496.61
2019-03-21T00:48:01.769Z,98499.44
2019-03-21T00:50:31.405Z,98503.70
2019-03-21T00:53:01.024Z,98501.06
2019-03-21T00:55:31.457Z,98503.84
2019-03-21T00:58:01.176Z,98504.97
2019-03-21T01:00:34.252Z,98506.41
2019-03-21T01:03:04.021Z,98496.48
2019-03-21T01:05:33.616Z,98504.80
2019-03-21T01:08:03.228Z,98501.47
2019-03-21T01:10:32.857Z,98505.30
2019-03-21T01:13:02.467Z,98498.06
2019-03-21T01:15:32.098Z,98496.60
2019-03-21T01:18:01.698Z,98488.82
2019-03-21T01:20:31.325Z,98490.00
2019-03-21T01:23:00.921Z,98483.33
2019-03-21T01:25:33.968Z,98484.49
2019-03-21T01:28:03.611Z,98481.99
2019-03-21T01:30:33.189Z,98478.28
2019-03-21T01:33:02.790Z,98479.36
2019-03-21T01:35:32.412Z,98478.72
2019-03-21T01:38:02.020Z,98481.10
2019-03-21T01:40:32.420Z,98475.52
2019-03-21T01:43:02.030Z,98479.97
2019-03-21T01:45:31.844Z,98479.20
2019-03-21T01:48:01.437Z,98477.34
2019-03-21T01:50:31.307Z,98471.69
2019-03-21T01:53:00.903Z,98470.31
2019-03-21T01:55:30.517Z,98468.02
2019-03-21T01:58:00.114Z,98469.53
2019-03-21T02:00:32.201Z,98464.27
2019-03-21T02:03:01.819Z,98456.95
2019-03-21T02:05:31.440Z,98453.48
2019-03-21T02:08:01.041Z,98456.31
2019-03-21T02:10:30.674Z,98457.77
2019-03-21T02:13:00.269Z,98453.15
2019-03-21T02:15:29.878Z,98455.76
2019-03-21T02:17:59.498Z,98458.13
2019-03-21T02:20:29.099Z,98453.77
2019-03-21T02:22:58.720Z,98455.78
2019-03-21T02:25:29.265Z,98452.15
2019-03-21T02:27:58.911Z,98456.23
2019-03-21T02:30:30.998Z,98455.06
2019-03-21T02:33:06.810Z,98449.56
2019-03-21T02:35:36.414Z,98454.09
2019-03-21T02:38:06.031Z,98448.27
2019-03-21T02:40:35.627Z,98450.84
2019-03-21T02:43:05.262Z,98452.84
2019-03-21T02:45:34.860Z,98460.28
2019-03-21T02:48:04.487Z,98452.27
2019-03-21T02:50:34.367Z,98449.09
2019-03-21T02:53:04.233Z,98447.15
2019-03-21T02:55:33.871Z,98449.58
2019-03-21T02:58:03.501Z,98455.34
2019-03-21T03:00:33.694Z,98446.86
2019-03-21T03:03:03.385Z,98451.49
2019-03-21T03:05:32.989Z,98449.69
2019-03-21T03:08:02.718Z,98442.39
2019-03-21T03:10:38.131Z,98442.62
2019-03-21T03:13:07.785Z,98444.80
2019-03-21T03:15:37.357Z,98454.03
2019-03-21T03:18:07.009Z,98458.60
2019-03-21T03:20:36.608Z,98456.27
2019-03-21T03:23:06.215Z,98459.66
2019-03-21T03:25:36.117Z,98452.07
2019-03-21T03:28:17.817Z,98452.70
2019-03-21T03:30:47.438Z,98446.56
2019-03-21T03:33:17.065Z,98448.70
2019-03-21T03:35:47.711Z,98445.31
2019-03-21T03:38:17.314Z,98448.14
2019-03-21T03:40:49.365Z,98447.95
2019-03-21T03:43:18.988Z,98444.05
2019-03-21T03:45:48.582Z,98448.64
2019-03-21T03:48:19.863Z,98458.86
2019-03-21T03:50:49.552Z,98458.12
2019-03-21T03:53:19.139Z,98466.08
2019-03-21T03:55:49.907Z,98467.00
2019-03-21T03:58:20.210Z,98471.94
2019-03-21T04:00:49.963Z,98466.64
2019-03-21T04:03:19.574Z,98471.65
2019-03-21T04:05:49.224Z,98469.26
2019-03-21T04:08:19.041Z,98464.98
2019-03-21T04:10:48.695Z,98464.34
2019-03-21T04:13:18.302Z,98469.30
2019-03-21T04:15:53.096Z,98471.34
2019-03-21T04:18:19.515Z,98475.53
2019-03-21T04:20:49.513Z,98473.22
2019-03-21T04:23:19.669Z,98474.36
2019-03-21T04:25:58.234Z,98474.56
2019-03-21T04:28:27.842Z,98475.52
2019-03-21T04:30:57.450Z,98471.53
2019-03-21T04:33:27.089Z,98480.23
2019-03-21T04:35:56.692Z,98482.95
2019-03-21T04:38:26.345Z,98479.08
2019-03-21T04:40:55.944Z,98480.55
2019-03-21T04:43:25.572Z,98483.21
2019-03-21T04:46:03.277Z,98477.42
2019-03-21T04:48:26.528Z,98473.12
2019-03-21T04:50:56.124Z,98470.13
2019-03-21T04:53:25.750Z,98465.71
2019-03-21T04:55:55.355Z,98475.52
2019-03-21T04:58:24.976Z,98474.19
2019-03-21T05:00:55.022Z,98470.21
2019-03-21T05:03:24.775Z,98463.61
2019-03-21T05:05:54.375Z,98462.56
2019-03-21T05:08:23.997Z,98468.47
2019-03-21T05:10:53.597Z,98473.45
2019-03-21T05:13:23.217Z,98471.96
2019-03-21T05:15:52.852Z,98474.12
2019-03-21T05:18:28.648Z,98474.09
2019-03-21T05:20:58.252Z,98478.56
2019-03-21T05:23:27.882Z,98478.56
2019-03-21T05:25:57.500Z,98478.39
2019-03-21T05:28:27.122Z,98483.09
2019-03-21T05:31:02.948Z,98488.86
2019-03-21T05:33:32.687Z,98489.78
2019-03-21T05:36:02.318Z,98489.45
2019-03-21T05:38:32.612Z,98489.59
2019-03-21T05:41:02.222Z,98486.30
2019-03-21T05:43:38.642Z,98486.95
2019-03-21T05:46:09.628Z,98484.19
2019-03-21T05:48:39.254Z,98486.94
2019-03-21T05:51:08.848Z,98483.66
2019-03-21T05:53:38.462Z,98486.40
2019-03-21T05:56:08.388Z,98483.66
2019-03-21T05:58:38.007Z,98486.03
2019-03-21T06:01:07.650Z,98486.52
2019-03-21T06:03:46.829Z,98489.85
2019-03-21T06:06:29.363Z,98491.89
2019-03-21T06:08:58.977Z,98491.45
2019-03-21T06:11:28.795Z,98493.31
2019-03-21T06:13:58.740Z,98493.63
2019-03-21T06:16:37.252Z,98501.27
2019-03-21T06:19:06.944Z,98490.08
2019-03-21T06:22:09.178Z,98487.09
2019-03-21T06:24:53.495Z,98490.44
2019-03-21T06:27:28.248Z,98492.60
2019-03-21T06:29:58.186Z,98492.10
2019-03-21T06:32:28.136Z,98491.74
2019-03-21T06:34:58.061Z,98495.72
2019-03-21T06:37:28.916Z,98493.67
2019-03-21T06:39:58.721Z,98491.69
2019-03-21T06:42:28.327Z,98489.08
2019-03-21T06:44:59.146Z,98483.05
2019-03-21T06:47:28.749Z,98484.83
2019-03-21T06:49:58.366Z,98475.52
2019-03-21T06:52:27.970Z,98480.89
2019-03-21T06:54:59.768Z,98475.20
2019-03-21T06:57:28.921Z,98482.92
2019-03-21T06:59:58.554Z,98486.06
2019-03-21T07:02:28.192Z,98487.14
2019-03-21T07:04:57.828Z,98483.45
2019-03-21T07:07:27.428Z,98487.72
2019-03-21T07:09:57.068Z,98483.95
2019-03-21T07:12:26.665Z,98481.11
2019-03-21T07:14:56.324Z,98484.47
2019-03-21T07:17:25.930Z,98487.47
2019-03-21T07:19:55.554Z,98492.06
2019-03-21T07:22:25.157Z,98487.18
2019-03-21T07:24:54.758Z,98489.91
2019-03-21T07:27:24.386Z,98490.39
2019-03-21T07:29:53.992Z,98490.02
2019-03-21T07:32:33.121Z,98495.12
2019-03-21T07:34:54.961Z,98492.00
2019-03-21T07:37:24.591Z,98486.14
2019-03-21T07:39:54.208Z,98480.36
2019-03-21T07:42:23.835Z,98488.08
2019-03-21T07:44:53.449Z,98488.57
2019-03-21T07:47:23.061Z,98497.05
2019-03-21T07:49:52.659Z,98495.90
2019-03-21T07:52:22.293Z,98499.78
2019-03-21T07:54:51.894Z,98497.78
2019-03-21T07:57:21.522Z,98495.31
2019-03-21T07:59:51.128Z,98499.42
2019-03-21T08:02:20.884Z,98503.02
2019-03-21T08:04:50.492Z,98498.84
2019-03-21T08:07:20.114Z,98502.93
2019-03-21T08:09:50.851Z,98505.84
2019-03-21T08:12:20.522Z,98502.21
2019-03-21T08:14:50.133Z,98501.95
2019-03-21T08:17:19.791Z,98503.94
2019-03-21T08:19:49.386Z,98506.77
2019-03-21T08:22:19.013Z,98502.14
2019-03-21T08:24:48.620Z,98500.16
2019-03-21T08:27:18.243Z,98500.09
2019-03-21T08:29:47.854Z,98500.63
2019-03-21T08:32:17.479Z,98496.15
2019-03-21T08:34:47.096Z,98511.70
2019-03-21T08:37:16.715Z,98505.38
2019-03-21T08:39:46.326Z,98503.34
2019-03-21T08:42:15.962Z,98501.70
2019-03-21T08:44:45.573Z,98503.69
2019-03-21T08:47:15.206Z,98500.51
2019-03-21T08:49:44.819Z,98491.13
2019-03-21T08:52:14.420Z,98500.08
2019-03-21T08:54:44.045Z,98491.45
2019-03-21T08:57:13.675Z,98493.78
2019-03-21T08:59:43.310Z,98494.88
2019-03-21T09:02:12.934Z,98494.05
2019-03-21T09:04:42.560Z,98497.97
2019-03-21T09:07:12.166Z,98500.78
2019-03-21T09:09:41.794Z,98506.44
2019-03-21T09:12:11.407Z,98500.95
2019-03-21T09:14:41.035Z,98502.06
2019-03-21T09:17:10.651Z,98497.17
2019-03-21T09:19:40.278Z,98500.49
2019-03-21T09:22:09.883Z,98494.59
2019-03-21T09:24:39.518Z,98494.69
2019-03-21T09:27:09.121Z,98491.63
2019-03-21T09:29:38.746Z,98491.55
2019-03-21T09:32:08.377Z,98492.69
2019-03-21T09:34:37.991Z,98489.97
2019-03-21T09:37:07.603Z,98487.65
2019-03-21T09:39:37.224Z,98498.19
2019-03-21T09:42:06.827Z,98490.23
2019-03-21T09:44:36.455Z,98482.53
2019-03-21T09:47:06.061Z,98478.46
2019-03-21T09:49:35.689Z,98484.23
2019-03-21T09:52:05.293Z,98482.14
2019-03-21T09:54:34.929Z,98481.95
2019-03-21T09:57:04.634Z,98490.95
2019-03-21T09:59:34.279Z,98487.55
2019-03-21T10:02:03.902Z,98484.73
2019-03-21T10:04:33.544Z,98481.39
2019-03-21T10:07:03.145Z,98481.61
2019-03-21T10:09:32.781Z,98480.77
2019-03-21T10:12:02.381Z,98482.64
2019-03-21T10:14:31.992Z,98477.52
2019-03-21T10:17:01.619Z,98478.58
2019-03-21T10:19:31.230Z,98473.32
2019-03-21T10:22:00.857Z,98485.20
2019-03-21T10:24:30.475Z,98479.63
2019-03-21T10:27:00.086Z,98479.45
2019-03-21T10:29:29.698Z,98479.73
2019-03-21T10:31:59.349Z,98481.13
2019-03-21T10:34:28.936Z,98477.39
2019-03-21T10:36:58.565Z,98475.05
2019-03-21T10:39:28.162Z,98487.92
2019-03-21T10:41:57.790Z,98474.06
2019-03-21T10:44:27.398Z,98474.50
2019-03-21T10:46:57.020Z,98477.33
2019-03-21T10:49:26.626Z,98475.79
2019-03-21T10:51:56.266Z,98470.98
2019-03-21T10:54:25.866Z,98467.64
2019-03-21T10:56:55.506Z,98476.27
2019-03-21T10:59:25.122Z,98470.34
2019-03-21T11:01:54.763Z,98464.67
2019-03-21T11:04:24.364Z,98470.49
2019-03-21T11:06:59.939Z,98465.81
2019-03-21T11:09:30.045Z,98456.22
2019-03-21T11:11:59.842Z,98453.93
2019-03-21T11:14:29.488Z,98452.91
2019-03-21T11:16:59.145Z,98456.72
2019-03-21T11:19:28.777Z,98464.38
2019-03-21T11:22:06.229Z,98457.86
2019-03-21T11:24:29.727Z,98453.34
2019-03-21T11:26:59.361Z,98448.98
2019-03-21T11:29:28.966Z,98443.73
2019-03-21T11:31:58.578Z,98454.41
2019-03-21T11:34:28.206Z,98443.12
2019-03-21T11:36:57.816Z,98434.08
2019-03-21T11:39:27.442Z,98439.64
2019-03-21T11:41:57.043Z,98434.94
2019-03-21T11:44:26.681Z,98428.27
2019-03-21T11:46:56.300Z,98421.22
2019-03-21T11:49:25.921Z,98426.73
2019-03-21T11:51:55.537Z,98429.81
2019-03-21T11:54:25.176Z,98423.67
2019-03-21T11:56:54.768Z,98416.08
2019-03-21T11:59:24.390Z,98417.13
2019-03-21T12:01:54.040Z,98412.17
2019-03-21T12:04:23.673Z,98419.66
2019-03-21T12:06:53.294Z,98407.61
2019-03-21T12:09:22.917Z,98402.61
2019-03-21T12:11:53.181Z,98400.84
2019-03-21T12:14:22.820Z,98402.25
2019-03-21T12:16:52.430Z,98406.49
2019-03-21T12:19:22.060Z,98396.91
2019-03-21T12:21:51.667Z,98386.43
2019-03-21T12:24:21.290Z,98382.66
2019-03-21T12:26:50.910Z,98384.48
2019-03-21T12:29:20.532Z,98385.75
2019-03-21T12:31:50.133Z,98382.04
2019-03-21T12:34:19.754Z,98379.20
2019-03-21T12:36:49.366Z,98373.69
2019-03-21T12:39:18.985Z,98372.41
2019-03-21T12:41:48.593Z,98375.47
2019-03-21T12:44:18.247Z,98365.11
2019-03-21T12:46:47.834Z,98369.92
2019-03-21T12:49:17.465Z,98365.00
2019-03-21T12:51:47.108Z,98354.69
2019-03-21T12:54:16.697Z,98360.20
2019-03-21T12:56:46.358Z,98358.46
2019-03-21T12:59:16.005Z,98349.32
2019-03-21T13:01:45.639Z,98355.80
2019-03-21T13:04:15.268Z,98353.69
2019-03-21T13:06:44.875Z,98346.47
2019-03-21T13:09:14.501Z,98347.73
2019-03-21T13:11:44.107Z,98339.59
2019-03-21T13:14:13.730Z,98335.95
2019-03-21T13:16:43.336Z,98326.81
2019-03-21T13:19:12.967Z,98332.45
2019-03-21T13:21:42.587Z,98330.72
2019-03-21T13:24:12.223Z,98328.20
2019-03-21T13:26:41.826Z,98321.84
2019-03-21T13:29:11.464Z,98320.66
2019-03-21T13:31:41.071Z,98315.98
2019-03-21T13:34:10.697Z,98312.51
2019-03-21T13:36:40.333Z,98315.02
2019-03-21T13:39:09.979Z,98315.00
2019-03-21T13:41:39.577Z,98312.55
2019-03-21T13:44:09.202Z,98306.80
2019-03-21T13:46:38.820Z,98307.73
2019-03-21T13:49:08.450Z,98307.33
2019-03-21T13:51:38.054Z,98307.38
2019-03-21T13:54:08.726Z,98304.03
2019-03-21T13:56:38.591Z,98297.36
2019-03-21T13:59:08.208Z,98294.39
2019-03-21T14:01:37.839Z,98292.17
2019-03-21T14:04:07.446Z,98297.66
2019-03-21T14:06:37.078Z,98296.38
2019-03-21T14:09:08.284Z,98298.80
2019-03-21T14:11:37.931Z,98287.89
2019-03-21T14:14:07.497Z,98289.70
2019-03-21T14:16:37.131Z,98285.50
2019-03-21T14:19:06.735Z,98293.58
2019-03-21T14:21:36.367Z,98283.44
2019-03-21T14:24:06.015Z,98281.48
2019-03-21T14:26:35.666Z,98274.97
2019-03-21T14:29:12.536Z,98280.97
2019-03-21T14:31:36.590Z,98276.69
2019-03-21T14:34:06.204Z,98264.83
2019-03-21T14:36:35.830Z,98268.00
2019-03-21T14:39:07.361Z,98262.45
2019-03-21T14:41:37.017Z,98260.72
2019-03-21T14:44:07.164Z,98254.42
2019-03-21T14:46:36.836Z,98255.41
2019-03-21T14:49:06.450Z,98249.14
2019-03-21T14:51:36.081Z,98258.94
2019-03-21T14:54:05.721Z,98257.15
2019-03-21T14:56:35.348Z,98251.33
2019-03-21T14:59:04.964Z,98253.48
2019-03-21T15:01:34.619Z,98253.09
2019-03-21T15:04:04.236Z,98251.52
2019-03-21T15:06:33.865Z,98248.65
2019-03-21T15:09:03.659Z,98248.21
2019-03-21T15:11:33.331Z,98240.91
2019-03-21T15:14:02.890Z,98245.68
2019-03-21T15:16:32.523Z,98240.23
2019-03-21T15:19:02.131Z,98241.16
2019-03-21T15:21:31.763Z,98234.94
2019-03-21T15:24:01.371Z,98243.66
2019-03-21T15:26:30.999Z,98246.97
2019-03-21T15:29:00.615Z,98240.47
2019-03-21T15:31:30.242Z,98242.16
2019-03-21T15:33:59.863Z,98229.91
2019-03-21T15:36:29.492Z,98233.87
2019-03-21T15:38:59.105Z,98231.89
2019-03-21T15:41:28.730Z,98233.37
2019-03-21T15:43:58.335Z,98227.33
2019-03-21T15:46:27.962Z,98234.30
2019-03-21T15:48:57.576Z,98232.27
2019-03-21T15:51:27.210Z,98233.88
2019-03-21T15:53:56.832Z,98227.52
2019-03-21T15:56:26.452Z,98221.03
2019-03-21T15:58:56.054Z,98223.52
2019-03-21T16:01:25.694Z,98225.18
2019-03-21T16:03:55.308Z,98217.39
2019-03-21T16:06:24.931Z,98206.67
2019-03-21T16:08:54.546Z,98213.80
2019-03-21T16:11:24.179Z,98212.52
2019-03-21T16:13:53.779Z,98205.94
2019-03-21T16:16:23.422Z,98206.49
2019-03-21T16:18:53.015Z,98219.42
2019-03-21T16:21:22.654Z,98215.36
2019-03-21T16:24:04.170Z,98207.55
2019-03-21T16:26:23.686Z,98212.13
2019-03-21T16:28:53.301Z,98211.88
2019-03-21T16:31:23.309Z,98207.36
2019-03-21T16:33:52.930Z,98212.60
2019-03-21T16:36:22.533Z,98213.09
2019-03-21T16:38:52.150Z,98214.51
2019-03-21T16:41:21.746Z,98211.53
2019-03-21T16:43:51.378Z,98212.33
2019-03-21T16:46:20.990Z,98215.80
2019-03-21T16:48:50.622Z,98212.50
2019-03-21T16:51:20.234Z,98211.37
2019-03-21T16:53:49.872Z,98208.05
2019-03-21T16:56:19.483Z,98213.66
2019-03-21T16:58:49.109Z,98212.82
2019-03-21T17:01:18.724Z,98211.11
2019-03-21T17:03:48.367Z,98208.59
2019-03-21T17:06:17.982Z,98207.69
2019-03-21T17:08:47.614Z,98215.35
2019-03-21T17:11:17.250Z,98215.35
2019-03-21T17:13:46.864Z,98217.00
2019-03-21T17:16:16.473Z,98221.38
2019-03-21T17:18:46.116Z,98221.38
2019-03-21T17:21:15.734Z,98220.42
2019-03-21T17:23:45.383Z,98220.42
2019-03-21T17:26:16.031Z,98231.95
2019-03-21T17:28:45.686Z,98234.23
2019-03-21T17:31:15.311Z,98232.67
2019-03-21T17:33:44.940Z,98232.67
2019-03-21T17:36:14.562Z,98236.42
2019-03-21T17:38:44.211Z,98234.03
2019-03-21T17:41:14.192Z,98234.77
2019-03-21T17:43:43.832Z,98237.86
2019-03-21T17:46:13.451Z,98246.05
2019-03-21T17:48:43.094Z,98246.19
2019-03-21T17:51:12.702Z,98246.45
2019-03-21T17:53:42.344Z,98253.60
2019-03-21T17:56:11.939Z,98248.39
2019-03-21T17:58:41.580Z,98248.34
2019-03-21T18:01:11.191Z,98255.23
2019-03-21T18:03:40.856Z,98254.44
2019-03-21T18:06:10.467Z,98252.79
2019-03-21T18:08:40.109Z,98251.20
2019-03-21T18:11:09.727Z,98255.31
2019-03-21T18:13:39.360Z,98257.52
2019-03-21T18:16:08.969Z,98253.43
2019-03-21T18:18:38.614Z,98261.67
2019-03-21T18:21:08.215Z,98266.02
2019-03-21T18:23:37.837Z,98262.93
2019-03-21T18:26:07.435Z,98267.16
2019-03-21T18:28:37.058Z,98267.30
2019-03-21T18:31:06.657Z,98272.79
2019-03-21T18:33:36.280Z,98272.28
2019-03-21T18:36:05.895Z,98276.79
2019-03-21T18:38:35.525Z,98279.02
2019-03-21T18:41:05.425Z,98282.76
2019-03-21T18:43:35.062Z,98273.63
2019-03-21T18:46:04.730Z,98274.47
2019-03-21T18:48:34.366Z,98271.28
2019-03-21T18:51:03.982Z,98275.88
2019-03-21T18:53:33.614Z,98278.02
2019-03-21T18:56:03.238Z,98277.61
2019-03-21T18:58:32.841Z,98277.10
2019-03-21T19:01:02.490Z,98283.68
2019-03-21T19:03:32.149Z,98287.73
2019-03-21T19:06:01.761Z,98286.00
2019-03-21T19:08:31.389Z,98289.50
2019-03-21T19:11:00.998Z,98287.42
2019-03-21T19:13:30.610Z,98282.31
2019-03-21T19:16:00.478Z,98282.70
2019-03-21T19:18:30.082Z,98270.27
2019-03-21T19:20:59.719Z,98284.97
2019-03-21T19:23:29.340Z,98289.20
2019-03-21T19:25:58.962Z,98287.84
2019-03-21T19:28:28.560Z,98287.03
2019-03-21T19:30:58.181Z,98286.82
2019-03-21T19:33:27.785Z,98289.27
2019-03-21T19:35:57.909Z,98281.88
2019-03-21T19:38:27.513Z,98293.09
2019-03-21T19:40:57.149Z,98289.36
2019-03-21T19:43:26.752Z,98286.27
2019-03-21T19:45:56.449Z,98278.42
2019-03-21T19:48:26.040Z,98284.23
2019-03-21T19:50:55.661Z,98283.84
2019-03-21T19:53:25.267Z,98284.32
2019-03-21T19:55:55.030Z,98276.06
2019-03-21T19:58:24.793Z,98284.35
2019-03-21T20:00:54.564Z,98286.70
2019-03-21T20:03:24.424Z,98290.70
2019-03-21T20:06:00.193Z,98291.41
2019-03-21T20:08:25.674Z,98287.49
2019-03-21T20:10:55.282Z,98286.20
2019-03-21T20:13:26.243Z,98292.41
2019-03-21T20:15:55.836Z,98292.00
2019-03-21T20:18:25.475Z,98295.13
2019-03-21T20:20:55.375Z,98300.31
2019-03-21T20:23:25.864Z,98295.99
2019-03-21T20:25:55.966Z,98290.05
2019-03-21T20:28:26.065Z,98297.49
2019-03-21T20:30:55.755Z,98296.31
2019-03-21T20:33:26.291Z,98292.72
2019-03-21T20:35:56.089Z,98292.75
2019-03-21T20:38:25.785Z,98294.27
2019-03-21T20:40:55.766Z,98305.09
2019-03-21T20:43:25.713Z,98303.55
2019-03-21T20:45:55.659Z,98303.22
2019-03-21T20:48:29.901Z,98304.13
2019-03-21T20:51:00.099Z,98302.52
2019-03-21T20:53:29.934Z,98305.53
2019-03-21T20:56:00.240Z,98301.03
2019-03-21T20:58:30.391Z,98302.36
2019-03-21T21:01:00.439Z,98299.53
2019-03-21T21:03:31.802Z,98299.89
2019-03-21T21:06:01.562Z,98301.48
2019-03-21T21:08:31.525Z,98298.89
2019-03-21T21:11:01.471Z,98301.16
2019-03-21T21:13:31.576Z,98302.97
2019-03-21T21:16:01.434Z,98297.39
2019-03-21T21:18:32.703Z,98292.76
2019-03-21T21:21:02.313Z,98293.26
2019-03-21T21:23:31.944Z,98288.52
2019-03-21T21:26:05.855Z,98289.45
2019-03-21T21:28:32.896Z,98286.17
2019-03-21T21:31:02.498Z,98280.66
2019-03-21T21:33:32.142Z,98280.44
2019-03-21T21:36:01.747Z,98277.27
2019-03-21T21:38:31.344Z,98272.72
2019-03-21T21:41:00.972Z,98271.13
2019-03-21T21:43:30.608Z,98271.06
2019-03-21T21:46:00.210Z,98276.02
2019-03-21T21:48:29.810Z,98277.54
2019-03-21T21:50:59.425Z,98271.64
2019-03-21T21:53:29.038Z,98271.13
2019-03-21T21:55:58.654Z,98277.14
2019-03-21T21:58:28.277Z,98277.97
2019-03-21T22:00:57.909Z,98271.61
2019-03-21T22:03:27.531Z,98271.70
2019-03-21T22:05:57.169Z,98272.39
2019-03-21T22:08:26.770Z,98268.01
2019-03-21T22:10:56.406Z,98266.62
2019-03-21T22:13:26.013Z,98263.63
2019-03-21T22:15:55.629Z,98263.76
2019-03-21T22:18:25.238Z,98262.01
2019-03-21T22:20:54.857Z,98263.86
2019-03-21T22:23:24.457Z,98262.80
2019-03-21T22:25:54.078Z,98258.18
2019-03-21T22:28:23.681Z,98268.08
2019-03-21T22:30:53.316Z,98262.67
2019-03-21T22:33:22.915Z,98266.34
2019-03-21T22:35:52.537Z,98270.56
2019-03-21T22:38:22.134Z,98273.52
2019-03-21T22:40:51.763Z,98276.00
2019-03-21T22:43:21.369Z,98273.78
2019-03-21T22:45:50.989Z,98272.95
2019-03-21T22:48:20.591Z,98263.63
2019-03-21T22:50:50.228Z,98261.20
2019-03-21T22:53:19.824Z,98256.95
2019-03-21T22:55:49.445Z,98258.75
2019-03-21T22:58:19.046Z,98261.32
2019-03-21T23:00:50.025Z,98247.50
2019-03-21T23:03:19.686Z,98246.23
2019-03-21T23:05:49.292Z,98250.52
2019-03-21T23:08:18.916Z,98247.02
2019-03-21T23:10:48.520Z,98242.53
2019-03-21T23:13:18.144Z,98244.10
2019-03-21T23:15:47.744Z,98241.70
2019-03-21T23:18:17.367Z,98245.93
2019-03-21T23:20:46.962Z,98251.22
2019-03-21T23:23:16.587Z,98250.95
2019-03-21T23:25:46.190Z,98251.30
2019-03-21T23:28:15.813Z,98247.64
2019-03-21T23:30:45.409Z,98250.63
2019-03-21T23:33:15.038Z,98249.41
2019-03-21T23:35:44.654Z,98239.50
2019-03-21T23:38:14.302Z,98247.26
2019-03-21T23:40:43.971Z,98236.09
2019-03-21T23:43:13.589Z,98242.59
2019-03-21T23:45:43.193Z,98235.56
2019-03-21T23:48:12.827Z,98235.13
2019-03-21T23:50:42.420Z,98229.70
2019-03-21T23:53:12.036Z,98235.50
2019-03-21T23:55:41.639Z,98231.47
2019-03-21T23:58:11.261Z,98232.52
